• Join FlightAware (Why Join?)
  • Login
  • US Flag 
08:07PM EDT


 

Airport Tracker/Info


-or-


 

Live Flight TrackerFlight Track Log ✈ AWI3778 ✈ 13-Aug-2013 ✈ KBTV - KPHL

Flight Track Log - Related Links

Times and Time Zones

All times are in EDT time to prevent confusion due to time zone crossing. See the AWI3778 flight status page for this flight to view local times or setup timezone preferences in your user account.

Time Position Orientation Groundspeed Altitude Reporting Facility
EDT Latitude Longitude Course Direction KTS MPH feet Rate Location/Type
02:49PM 44.2739 -73.1069 197° South 221 254 8,800  Level Boston Center
02:50PM 44.2031 -73.1408 199° South 259 298 11,000 2,040 Climbing Boston Center
02:51PM 43.8807 -73.3738 195° South  Level FlightAware Approximate
02:51PM 44.1297 -73.1747 198° South 279 321 13,000  Level Boston Center
02:52PM 43.7827 -73.4100 195° South  Level FlightAware Approximate
02:52PM 44.0628 -73.2347 213° Southwest 290 334 14,500  Level Boston Center
02:53PM 43.6846 -73.4462 195° South  Level FlightAware Approximate
02:53PM 43.9892 -73.3028 214° Southwest 308 354 16,100  Level Boston Center
02:54PM 43.9181 -73.3711 215° Southwest 313 360 17,600 1,500 Climbing Boston Center
02:55PM 43.8422 -73.4417 214° Southwest 320 368 19,200 1,140 Climbing Boston Center
02:56PM 43.7686 -73.5125 215° Southwest 320 368 20,000 360 Climbing Boston Center
02:57PM 43.6867 -73.5886 214° Southwest 346 398 20,000 660 Level Boston Center
02:58PM 43.5942 -73.6728 213° Southwest 361 415 21,500 1,620 Climbing Boston Center
02:59PM 43.5142 -73.7456 213° Southwest 361 415 23,300 1,740 Climbing Boston Center
03:00PM 43.4383 -73.8183 215° Southwest 350 403 25,000 1,320 Climbing Boston Center
03:01PM 43.3667 -73.8853 214° Southwest 333 383 26,000 480 Climbing Boston Center
03:02PM 43.2886 -73.9547 213° Southwest 333 383 26,000  Level Boston Center
03:03PM 43.2042 -74.0353 215° Southwest 349 402 26,000  Level Boston Center
03:04PM 43.1156 -74.1125 212° Southwest 373 429 26,000  Level Boston Center
03:05PM 43.0267 -74.1981 215° Southwest 388 447 26,000  Level Boston Center
03:06PM 42.9336 -74.2806 213° Southwest 395 455 26,000  Level Boston Center
03:07PM 42.8383 -74.3683 214° Southwest 408 470 26,000  Level Boston Center
03:08PM 42.7453 -74.4503 213° Southwest 408 470 26,000  Level Boston Center
03:09PM 42.6711 -74.5156 213° Southwest 408 470 26,000  Level Boston Center
03:10PM 42.5586 -74.6219 215° Southwest 408 470 26,000 -480 Level Boston Center
03:11PM 42.4611 -74.7056 212° Southwest 408 470 25,100 -1,200 Descending Boston Center
03:12PM 42.3633 -74.7947 214° Southwest 420 483 23,700 -1,380 Descending Boston Center
03:13PM 42.2806 -74.8675 213° Southwest 398 458 22,300 -900 Descending Boston Center
03:14PM 42.2042 -74.9347 213° Southwest 363 418 22,000 -840 Descending Boston Center
03:16PM 42.0606 -75.0558 212° Southwest 349 402 20,200 -1,200 Descending New York Center
03:17PM 41.9703 -75.1308 212° Southwest 365 420 19,000 -600 Descending New York Center
03:18PM 41.8867 -75.1978 211° Southwest 376 433 19,000 -360 Level New York Center
03:19PM 41.8094 -75.2594 211° Southwest 371 427 18,400 -1,260 Descending New York Center
03:20PM 41.7233 -75.3314 212° Southwest 371 427 16,600 -1,800 Descending New York Center
03:21PM 41.6267 -75.4081 211° Southwest 376 433 14,800 -1,740 Descending New York Center
03:22PM 41.5383 -75.4797 211° Southwest 376 433 13,200 -1,440 Descending New York Center
03:23PM 41.4525 -75.5483 211° Southwest 376 433 12,000 -660 Descending New York Center
03:24PM 41.3814 -75.6042 211° Southwest 350 403 12,000  Level New York Center
03:25PM 41.2975 -75.6672 209° Southwest 332 382 12,000  Level New York Center
03:26PM 41.2136 -75.6858 189° South 311 358 12,000  Level New York Center
03:27PM 41.1239 -75.6875 181° South 317 365 12,000  Level New York Center
03:28PM 41.0303 -75.6864 179° South 334 384 12,000  Level New York Center
03:29PM 40.9364 -75.6878 181° South 334 384 12,000 -420 Level New York Center
03:30PM 40.8447 -75.6867 179° South 334 384 11,200 -900 Descending New York Center
03:31PM 40.7572 -75.6858 180° South 329 379 10,200 -600 Descending New York Center
03:32PM 40.6803 -75.6858 180° South 324 373 10,000 -120 Descending New York Center
03:33PM 40.5869 -75.6708 173° South 311 358 10,000  Level New York Center
03:34PM 40.5300 -75.5850 131° Southeast 299 344 10,000 -180 Level New York Center
03:35PM 40.4797 -75.4886 124° Southeast 304 350 9,700 -540 Descending New York Center
03:36PM 40.4331 -75.4092 128° Southeast 316 364 9,000 -1,020 Descending New York Center
03:37PM 40.3514 -75.3600 155° Southeast 293 337 7,700 -1,620 Descending New York Center
03:38PM 40.2781 -75.3197 157° South 293 337 5,800 -1,800 Descending New York Center
03:39PM 40.1958 -75.2872 163° South 293 337 4,100 -900 Descending New York Center
03:40PM 40.1167 -75.2500 160° South 283 326 4,000 -60 Descending Philadelphia TRACON
03:41PM 40.0500 -75.2167 159° South 230 265 4,000  Level Philadelphia TRACON
03:42PM 39.9833 -75.1833 159° South 221 254 4,000  Level Philadelphia TRACON
03:43PM 39.9333 -75.1667 166° South 225 259 4,000 -300 Level Philadelphia TRACON
03:44PM 39.8833 -75.1333 153° Southeast 192 221 3,500 -960 Descending Philadelphia TRACON
03:44PM 39.8500 -75.1167 159° South 189 217 2,300 -720 Descending Philadelphia TRACON
03:46PM 39.8000 -75.1500 207° Southwest 167 192 2,000 -420 Descending Philadelphia TRACON
03:47PM 39.8167 -75.2000 293° West 142 163 1,500 -780 Descending Philadelphia TRACON
03:48PM 39.8500 -75.2167 339° North 140 161 500 -960 Descending Philadelphia TRACON